Time;durP1;ratioP1;P1;durP2;ratioP2;P2;SDS_P1;SDS_P2;PMS_P1;PMS_P2;Temp;Humidity;BMP_temperature;BMP_pressure;BME280_temperature;BME280_humidity;BME280_pressure;Samples;Min_cycle;Max_cycle;Signal;HPM_P1;HPM_P2
2022/09/24 00:01:11;;;;;;;33.88;19.55;;;15.50;72.80;;;;;;9177140;19;20511;-69
2022/09/24 00:04:20;;;;;;;33.85;19.25;;;15.50;72.80;;;;;;9175989;19;20014;-69
2022/09/24 00:07:24;;;;;;;38.28;20.42;;;15.50;72.80;;;;;;9179231;19;20007;-69
2022/09/24 00:10:29;;;;;;;34.35;21.35;;;15.50;72.90;;;;;;9173269;19;20015;-67
2022/09/24 00:13:34;;;;;;;34.05;21.10;;;15.50;73.00;;;;;;9180337;19;20082;-69
2022/09/24 00:16:40;;;;;;;37.58;21.27;;;15.50;73.00;;;;;;9186846;19;20344;-69
2022/09/24 00:19:43;;;;;;;38.65;21.02;;;15.50;73.10;;;;;;9185852;19;20025;-69
2022/09/24 00:22:47;;;;;;;32.65;20.70;;;15.50;73.10;;;;;;9184269;19;20086;-71
2022/09/24 00:29:11;;;;;;;37.40;21.17;;;15.50;73.20;;;;;;9186507;19;20542;-69
2022/09/24 00:32:14;;;;;;;32.60;20.95;;;15.50;73.20;;;;;;9183644;19;20479;-69
2022/09/24 00:35:18;;;;;;;39.08;20.48;;;15.50;73.20;;;;;;9185663;19;20630;-69
2022/09/24 00:38:22;;;;;;;33.95;20.67;;;15.50;73.40;;;;;;9184061;19;20033;-69
2022/09/24 00:41:30;;;;;;;35.50;20.50;;;15.50;73.40;;;;;;9183392;19;20528;-67
2022/09/24 00:44:52;;;;;;;33.53;20.58;;;15.50;73.50;;;;;;9185124;19;20011;-69
2022/09/24 00:47:59;;;;;;;32.28;19.60;;;15.40;73.70;;;;;;9185747;19;20051;-68
2022/09/24 00:51:03;;;;;;;35.08;19.40;;;15.50;73.50;;;;;;9184623;19;20026;-68
2022/09/24 00:54:13;;;;;;;30.80;20.38;;;15.50;73.60;;;;;;9183397;19;20090;-70
2022/09/24 00:57:19;;;;;;;31.17;19.10;;;15.50;73.60;;;;;;9180030;19;20538;-69
2022/09/24 01:00:23;;;;;;;29.88;19.52;;;15.40;74.30;;;;;;9183406;19;20756;-68
2022/09/24 01:03:27;;;;;;;;;;;15.40;73.60;;;;;;9180324;19;20018;-68
2022/09/24 01:06:31;;;;;;;28.42;17.67;;;15.50;73.60;;;;;;9183500;19;19926;-68
2022/09/24 01:09:35;;;;;;;;;;;15.40;73.50;;;;;;9183911;19;20014;-68
2022/09/24 01:12:47;;;;;;;31.63;19.13;;;15.40;73.50;;;;;;9184851;19;19918;-70
2022/09/24 01:16:00;;;;;;;28.23;17.27;;;15.40;73.40;;;;;;9183942;19;20086;-70
2022/09/24 01:19:17;;;;;;;28.02;16.92;;;15.40;73.60;;;;;;9183851;19;20081;-67
2022/09/24 01:22:33;;;;;;;27.50;16.65;;;15.40;73.70;;;;;;9181872;19;20029;-67
2022/09/24 01:25:44;;;;;;;28.77;17.05;;;15.40;73.80;;;;;;9181667;19;20014;-68
2022/09/24 01:29:05;;;;;;;25.88;15.73;;;15.40;73.80;;;;;;9184610;19;20050;-70
2022/09/24 01:32:18;;;;;;;26.60;16.08;;;15.40;73.90;;;;;;9184883;19;20011;-68
2022/09/24 01:35:27;;;;;;;23.85;14.10;;;15.40;73.90;;;;;;9183526;19;20085;-67
2022/09/24 01:38:33;;;;;;;24.33;15.70;;;15.40;73.80;;;;;;9182096;19;20471;-68
2022/09/24 01:41:38;;;;;;;26.40;14.93;;;15.40;73.90;;;;;;9183316;19;20025;-70
2022/09/24 01:44:44;;;;;;;28.60;15.07;;;15.30;73.90;;;;;;9183022;19;20051;-70
2022/09/24 01:47:50;;;;;;;23.10;14.30;;;15.30;73.90;;;;;;9183046;19;20488;-69
2022/09/24 01:50:59;;;;;;;24.80;14.18;;;15.30;74.00;;;;;;9181687;19;20025;-62
2022/09/24 01:54:06;;;;;;;22.90;14.52;;;15.30;74.10;;;;;;9183072;19;20468;-63
2022/09/24 01:57:16;;;;;;;22.85;14.38;;;15.30;74.10;;;;;;9178319;19;20666;-64
2022/09/24 02:00:22;;;;;;;25.00;14.63;;;15.20;74.10;;;;;;9183495;19;20018;-63
2022/09/24 02:03:31;;;;;;;25.23;14.27;;;15.30;74.20;;;;;;9179629;19;20074;-63
2022/09/24 02:06:40;;;;;;;26.40;15.75;;;15.20;74.30;;;;;;9183105;19;20032;-63
2022/09/24 02:09:45;;;;;;;22.75;14.73;;;15.20;74.20;;;;;;9180431;19;20044;-63
2022/09/24 02:12:53;;;;;;;24.70;14.13;;;15.20;74.30;;;;;;9182309;19;20018;-64
2022/09/24 02:16:00;;;;;;;25.85;15.73;;;15.20;74.40;;;;;;9182411;19;20382;-63
2022/09/24 02:19:10;;;;;;;21.77;13.93;;;15.20;74.40;;;;;;9181863;19;20014;-64
2022/09/24 02:22:15;;;;;;;23.92;14.27;;;15.20;74.50;;;;;;9180160;19;20051;-64
2022/09/24 02:25:23;;;;;;;23.25;14.93;;;15.20;74.50;;;;;;9182255;19;20019;-64
2022/09/24 02:28:27;;;;;;;21.27;13.20;;;15.20;74.50;;;;;;9182046;19;20027;-64
2022/09/24 02:31:33;;;;;;;22.23;13.82;;;15.20;74.60;;;;;;9182179;19;20019;-65
2022/09/24 02:34:42;;;;;;;21.30;13.70;;;15.20;74.60;;;;;;9178561;19;20018;-64
2022/09/24 02:37:46;;;;;;;22.90;13.68;;;15.20;74.70;;;;;;9181338;19;20015;-64
2022/09/24 02:40:52;;;;;;;26.45;13.40;;;15.20;74.60;;;;;;9181628;19;20082;-63
2022/09/24 02:43:55;;;;;;;19.67;12.88;;;15.20;74.70;;;;;;9177955;19;20019;-63
2022/09/24 02:47:00;;;;;;;20.17;12.50;;;15.20;74.70;;;;;;9181289;19;20014;-63
2022/09/24 02:50:06;;;;;;;21.45;12.20;;;15.20;74.80;;;;;;9181905;19;20391;-63
2022/09/24 02:53:10;;;;;;;21.00;13.70;;;15.10;74.80;;;;;;9181330;19;20051;-64
2022/09/24 02:56:14;;;;;;;24.50;13.50;;;15.10;74.80;;;;;;9180498;19;20359;-64
2022/09/24 02:59:18;;;;;;;20.50;13.25;;;15.10;74.90;;;;;;9181996;19;20835;-63
2022/09/24 03:02:21;;;;;;;;;;;15.10;74.90;;;;;;9178588;19;20021;-63
2022/09/24 03:05:27;;;;;;;19.65;11.73;;;15.10;74.80;;;;;;9180860;19;19925;-63
2022/09/24 03:08:32;;;;;;;19.77;12.07;;;15.10;74.70;;;;;;9179477;19;20604;-64
2022/09/24 03:11:35;;;;;;;16.80;11.68;;;15.10;74.80;;;;;;9179685;19;20037;-63
2022/09/24 03:14:39;;;;;;;18.08;11.75;;;15.10;74.90;;;;;;9179327;19;20015;-62
2022/09/24 03:17:42;;;;;;;18.48;12.25;;;15.10;75.00;;;;;;9180971;19;20374;-62
2022/09/24 03:20:58;;;;;;;17.48;12.40;;;15.10;75.10;;;;;;9180707;19;20022;-62
2022/09/24 03:24:02;;;;;;;19.48;12.18;;;15.10;75.30;;;;;;9175998;19;20019;-63
2022/09/24 03:27:06;;;;;;;22.02;12.85;;;15.10;75.20;;;;;;9179991;19;20014;-62
2022/09/24 03:33:28;;;;;;;20.73;12.32;;;15.10;75.30;;;;;;9179352;19;20031;-63
2022/09/24 03:36:33;;;;;;;21.08;12.55;;;15.10;75.30;;;;;;9179699;19;20027;-62
2022/09/24 03:39:37;;;;;;;21.98;12.90;;;15.10;75.50;;;;;;9179117;19;20007;-62
2022/09/24 03:42:41;;;;;;;21.23;13.27;;;15.10;76.10;;;;;;9177237;19;20014;-63
2022/09/24 03:45:44;;;;;;;22.65;14.20;;;15.10;75.50;;;;;;9179419;19;20090;-64
2022/09/24 03:48:48;;;;;;;21.73;12.88;;;15.10;75.50;;;;;;9183679;19;20093;-61
2022/09/24 03:51:54;;;;;;;;;;;15.10;75.60;;;;;;9187902;19;20022;-61
2022/09/24 03:54:57;;;;;;;20.73;12.50;;;15.10;75.50;;;;;;9187176;19;20036;-63
2022/09/24 03:58:01;;;;;;;22.38;13.32;;;15.10;75.40;;;;;;9180006;19;20078;-63
2022/09/24 04:01:06;;;;;;;22.42;14.05;;;15.10;75.60;;;;;;9186666;19;20090;-63
2022/09/24 04:04:14;;;;;;;21.42;13.93;;;15.00;75.60;;;;;;9184350;19;20468;-63
2022/09/24 04:07:19;;;;;;;23.05;14.50;;;15.00;75.70;;;;;;9186198;19;20082;-63
2022/09/24 04:10:24;;;;;;;24.50;14.25;;;15.00;75.80;;;;;;9184040;19;20017;-63
2022/09/24 04:13:28;;;;;;;25.67;15.32;;;15.00;75.80;;;;;;9185725;19;20070;-63
2022/09/24 04:16:31;;;;;;;26.27;15.52;;;15.00;75.90;;;;;;9186379;19;20006;-63
2022/09/24 04:19:35;;;;;;;25.25;15.82;;;15.00;75.90;;;;;;9187384;19;20014;-64
2022/09/24 04:22:40;;;;;;;26.30;15.35;;;15.00;75.90;;;;;;9184249;19;20030;-64
2022/09/24 04:25:45;;;;;;;25.33;16.05;;;15.00;76.00;;;;;;9185337;19;20014;-62
2022/09/24 04:28:49;;;;;;;30.92;17.13;;;15.00;76.00;;;;;;9185824;19;20475;-64
2022/09/24 04:31:53;;;;;;;25.90;16.40;;;15.00;76.10;;;;;;9185929;19;20018;-63
2022/09/24 04:34:56;;;;;;;29.92;16.13;;;15.10;76.20;;;;;;9185962;19;20032;-63
2022/09/24 04:38:02;;;;;;;27.58;16.15;;;15.00;76.20;;;;;;9185913;19;20467;-63
2022/09/24 04:41:07;;;;;;;28.55;16.73;;;15.00;76.20;;;;;;9186480;19;20078;-65
2022/09/24 04:44:12;;;;;;;29.95;17.60;;;15.00;76.30;;;;;;9182533;19;20085;-62
2022/09/24 04:47:16;;;;;;;26.27;16.85;;;15.00;76.30;;;;;;9185598;19;20043;-62
2022/09/24 04:50:21;;;;;;;29.80;18.52;;;15.00;76.30;;;;;;9185714;19;20015;-62
2022/09/24 04:53:31;;;;;;;28.55;17.58;;;15.00;76.40;;;;;;9184847;19;20022;-64
2022/09/24 04:56:35;;;;;;;28.80;17.88;;;15.00;76.50;;;;;;9180281;19;20388;-62
2022/09/24 04:59:38;;;;;;;28.90;17.50;;;15.00;76.50;;;;;;9184694;19;20010;-64
2022/09/24 05:02:42;;;;;;;27.70;16.90;;;15.00;76.50;;;;;;9182600;19;20523;-63
2022/09/24 05:05:46;;;;;;;;;;;15.00;76.50;;;;;;9184903;19;20360;-62
2022/09/24 05:08:52;;;;;;;30.13;17.23;;;15.00;76.50;;;;;;9183776;19;20363;-65
2022/09/24 05:11:55;;;;;;;33.53;17.50;;;15.00;76.30;;;;;;9182272;19;20483;-64
2022/09/24 05:14:59;;;;;;;27.55;15.95;;;15.00;76.50;;;;;;9183028;19;20119;-65
2022/09/24 05:18:03;;;;;;;26.25;16.55;;;14.90;76.60;;;;;;9175544;19;20039;-65
2022/09/24 05:21:07;;;;;;;28.33;16.10;;;15.00;76.60;;;;;;9174026;19;20019;-64
2022/09/24 05:24:12;;;;;;;25.35;15.65;;;15.00;76.70;;;;;;9172867;19;20018;-64
2022/09/24 05:27:16;;;;;;;31.10;17.27;;;14.90;76.60;;;;;;9174250;19;20077;-62
2022/09/24 05:30:21;;;;;;;31.27;17.88;;;14.90;76.70;;;;;;9177128;19;20034;-64
2022/09/24 05:33:24;;;;;;;26.23;16.65;;;14.90;76.70;;;;;;9176707;19;20531;-62
2022/09/24 05:36:28;;;;;;;30.73;17.60;;;14.90;76.80;;;;;;9181964;19;20082;-65
2022/09/24 05:39:33;;;;;;;27.38;17.02;;;14.90;76.80;;;;;;9184146;19;20027;-65
2022/09/24 05:42:38;;;;;;;27.95;17.35;;;14.90;76.90;;;;;;9182694;19;20366;-64
2022/09/24 05:45:42;;;;;;;28.02;16.98;;;14.90;76.90;;;;;;9183552;19;20110;-63
2022/09/24 05:48:46;;;;;;;31.55;18.05;;;14.90;77.00;;;;;;9182939;19;20025;-66
2022/09/24 05:51:50;;;;;;;28.65;17.00;;;14.90;77.00;;;;;;9182949;19;20124;-63
2022/09/24 05:54:56;;;;;;;;;;;14.90;77.00;;;;;;9184101;19;20024;-62
2022/09/24 05:58:04;;;;;;;29.73;17.70;;;14.90;77.30;;;;;;9178498;19;20389;-63
2022/09/24 06:01:07;;;;;;;26.45;16.73;;;14.90;76.80;;;;;;9181560;19;20078;-63
2022/09/24 06:04:12;;;;;;;27.65;17.70;;;14.90;76.90;;;;;;9179208;19;20031;-64
2022/09/24 06:07:16;;;;;;;25.45;16.42;;;14.90;77.00;;;;;;9180753;19;20027;-64
2022/09/24 06:10:24;;;;;;;30.58;18.10;;;14.90;77.00;;;;;;9176609;19;20025;-63
2022/09/24 06:13:28;;;;;;;31.30;16.67;;;14.90;77.10;;;;;;9180646;19;20074;-63
2022/09/24 06:16:34;;;;;;;27.13;17.55;;;14.90;77.10;;;;;;9176848;19;20372;-65
2022/09/24 06:19:38;;;;;;;28.55;17.58;;;14.90;77.20;;;;;;9177408;19;20007;-64
2022/09/24 06:22:41;;;;;;;29.75;17.98;;;14.90;77.80;;;;;;9175393;19;20014;-62
2022/09/24 06:25:50;;;;;;;29.02;16.98;;;14.90;77.20;;;;;;9179191;19;20022;-63
2022/09/24 06:28:54;;;;;;;29.95;16.77;;;14.90;77.30;;;;;;9180363;19;20019;-64
2022/09/24 06:31:58;;;;;;;25.88;16.88;;;14.90;77.30;;;;;;9181671;19;20022;-64
2022/09/24 06:35:02;;;;;;;28.50;17.25;;;14.90;77.40;;;;;;9181060;19;20043;-63
2022/09/24 06:38:07;;;;;;;30.58;17.90;;;14.90;77.40;;;;;;9180654;19;20022;-65
2022/09/24 06:41:13;;;;;;;28.60;17.35;;;14.90;77.40;;;;;;9180892;19;20082;-63
2022/09/24 06:44:18;;;;;;;28.90;17.33;;;14.90;77.50;;;;;;9178264;19;20031;-65
2022/09/24 06:47:22;;;;;;;27.83;17.33;;;14.90;77.50;;;;;;9181684;19;20106;-64
2022/09/24 06:50:30;;;;;;;28.75;16.92;;;14.90;77.60;;;;;;9180291;19;20014;-64
2022/09/24 06:53:34;;;;;;;30.55;17.95;;;14.90;77.60;;;;;;9177816;19;20452;-65
2022/09/24 06:56:39;;;;;;;36.10;20.60;;;14.90;77.60;;;;;;9174861;19;20598;-63
2022/09/24 06:59:43;;;;;;;35.47;18.33;;;14.90;77.70;;;;;;9179084;19;20066;-64
2022/09/24 07:02:52;;;;;;;;;;;15.00;77.70;;;;;;9173973;19;20052;-63
2022/09/24 07:05:56;;;;;;;27.73;16.13;;;14.90;77.60;;;;;;9177867;19;19923;-64
2022/09/24 07:09:00;;;;;;;25.98;16.13;;;15.00;77.50;;;;;;9175142;19;20060;-63
2022/09/24 07:12:07;;;;;;;27.58;16.08;;;15.00;77.60;;;;;;9180423;19;20217;-63
2022/09/24 07:15:12;;;;;;;26.15;15.93;;;15.00;77.70;;;;;;9178086;19;20056;-64
2022/09/24 07:18:15;;;;;;;27.98;15.95;;;15.00;77.70;;;;;;9179850;19;20497;-63
2022/09/24 07:21:19;;;;;;;28.48;16.77;;;15.00;77.80;;;;;;9178899;19;20007;-64
2022/09/24 07:24:23;;;;;;;27.73;17.02;;;15.00;77.80;;;;;;9172920;19;20424;-64
2022/09/24 07:27:28;;;;;;;25.88;15.15;;;15.00;77.90;;;;;;9178627;19;20035;-63
2022/09/24 07:30:33;;;;;;;25.00;15.32;;;15.10;77.90;;;;;;9178756;19;20496;-64
2022/09/24 07:33:37;;;;;;;29.70;16.27;;;15.10;77.90;;;;;;9179710;19;20024;-62
2022/09/24 07:36:41;;;;;;;28.05;16.35;;;15.10;78.00;;;;;;9180146;19;20015;-63
2022/09/24 07:39:44;;;;;;;27.48;16.70;;;15.10;78.00;;;;;;9180002;19;20091;-65
2022/09/24 07:42:50;;;;;;;24.92;15.15;;;15.10;78.00;;;;;;9178535;19;20119;-64
2022/09/24 07:45:54;;;;;;;29.48;17.10;;;15.10;78.00;;;;;;9176951;19;20019;-63
2022/09/24 07:48:58;;;;;;;26.63;16.60;;;15.20;78.00;;;;;;9178255;19;20028;-64
2022/09/24 07:52:02;;;;;;;28.38;16.17;;;15.10;78.00;;;;;;9179269;19;20356;-63
2022/09/24 07:55:07;;;;;;;27.00;16.98;;;15.20;78.10;;;;;;9178719;19;20050;-65
2022/09/24 07:58:15;;;;;;;28.17;16.50;;;15.20;78.00;;;;;;9173550;19;20021;-63
2022/09/24 08:01:19;;;;;;;30.55;18.20;;;15.20;78.20;;;;;;9179133;19;20017;-63
2022/09/24 08:04:23;;;;;;;26.40;16.10;;;15.20;78.10;;;;;;9173322;19;20051;-64
2022/09/24 08:07:27;;;;;;;26.70;16.67;;;15.30;78.20;;;;;;9177959;19;20018;-63
2022/09/24 08:10:31;;;;;;;27.75;16.38;;;15.30;78.10;;;;;;9174700;19;20386;-63
2022/09/24 08:13:36;;;;;;;30.00;17.55;;;15.30;78.10;;;;;;9178433;19;20011;-64
2022/09/24 08:16:40;;;;;;;24.77;16.15;;;15.30;78.20;;;;;;9176724;19;20030;-64
2022/09/24 08:19:45;;;;;;;29.30;16.00;;;15.30;78.20;;;;;;9177268;19;20578;-64
2022/09/24 08:22:48;;;;;;;29.33;15.98;;;15.30;78.20;;;;;;9173627;19;20023;-64
2022/09/24 08:25:54;;;;;;;28.50;17.85;;;15.40;78.20;;;;;;9173083;19;20114;-64
2022/09/24 08:28:59;;;;;;;27.08;16.00;;;15.30;78.10;;;;;;9173588;19;20025;-64
2022/09/24 08:32:04;;;;;;;32.45;16.77;;;15.40;78.20;;;;;;9174518;19;20020;-63
2022/09/24 08:35:09;;;;;;;25.27;15.52;;;15.40;78.80;;;;;;9178686;19;20014;-63
2022/09/24 08:38:12;;;;;;;28.05;17.42;;;15.40;78.20;;;;;;9181559;19;20025;-65
2022/09/24 08:41:39;;;;;;;26.63;16.13;;;15.40;78.20;;;;;;9181379;19;20388;-64
2022/09/24 08:48:09;;;;;;;25.90;15.43;;;15.50;78.20;;;;;;9180641;19;20023;-65
2022/09/24 08:51:17;;;;;;;27.60;15.50;;;15.50;78.30;;;;;;9185031;19;20019;-64
2022/09/24 08:54:24;;;;;;;23.58;15.52;;;15.50;78.20;;;;;;9186458;19;20361;-63
2022/09/24 08:57:29;;;;;;;27.15;15.30;;;15.50;78.30;;;;;;9171944;19;20028;-66
2022/09/24 09:00:41;;;;;;;26.13;14.98;;;15.50;78.20;;;;;;9179906;19;20459;-65
2022/09/24 09:03:50;;;;;;;28.00;14.85;;;15.50;78.20;;;;;;9172552;19;20507;-65
2022/09/24 09:07:09;;;;;;;21.38;13.48;;;15.60;78.20;;;;;;9172932;19;20090;-63
2022/09/24 09:10:17;;;;;;;26.15;15.10;;;15.60;78.30;;;;;;9173955;19;20093;-63
2022/09/24 09:13:25;;;;;;;28.63;15.75;;;15.60;78.30;;;;;;9178413;19;20078;-63
2022/09/24 09:16:35;;;;;;;26.48;14.48;;;15.60;78.20;;;;;;9176393;19;20820;-64
2022/09/24 09:19:41;;;;;;;25.13;15.10;;;15.60;78.20;;;;;;9176003;19;20014;-63
2022/09/24 09:22:48;;;;;;;23.88;15.30;;;15.60;78.20;;;;;;9174130;19;20025;-63
2022/09/24 09:25:56;;;;;;;26.17;14.10;;;15.60;78.20;;;;;;9176696;19;20376;-64
2022/09/24 09:29:02;;;;;;;22.08;14.13;;;15.70;78.20;;;;;;9173361;19;20011;-63
2022/09/24 09:32:21;;;;;;;28.98;15.70;;;15.70;78.20;;;;;;9177256;19;20102;-65
2022/09/24 09:35:32;;;;;;;27.02;14.82;;;15.70;78.30;;;;;;9173600;19;20093;-66
2022/09/24 09:38:45;;;;;;;27.33;15.10;;;15.70;78.30;;;;;;9175775;19;20349;-64
2022/09/24 09:41:53;;;;;;;23.02;15.88;;;15.70;78.30;;;;;;9183114;19;20664;-63
2022/09/24 09:44:57;;;;;;;21.20;13.25;;;15.70;78.20;;;;;;9179414;19;20042;-63
2022/09/24 09:48:04;;;;;;;27.52;14.07;;;15.70;78.20;;;;;;9181273;19;20467;-65
2022/09/24 09:51:14;;;;;;;21.83;12.68;;;15.70;78.20;;;;;;9180644;19;20086;-63
2022/09/24 09:54:36;;;;;;;17.35;12.23;;;15.70;78.20;;;;;;9182147;19;20014;-65
2022/09/24 09:57:42;;;;;;;22.70;14.23;;;15.70;78.20;;;;;;9173691;19;20054;-62
2022/09/24 10:00:48;;;;;;;27.25;14.35;;;15.70;78.20;;;;;;9178024;19;20379;-62
2022/09/24 10:03:54;;;;;;;22.20;14.32;;;15.70;78.20;;;;;;9172467;19;20078;-64
2022/09/24 10:07:09;;;;;;;28.00;13.88;;;15.80;78.30;;;;;;9179299;19;20030;-66
2022/09/24 10:10:19;;;;;;;26.00;14.10;;;15.80;78.30;;;;;;9174655;19;20014;-63
2022/09/24 10:13:23;;;;;;;25.85;14.73;;;15.80;78.30;;;;;;9180764;19;20018;-63
2022/09/24 10:16:27;;;;;;;;;;;15.80;78.40;;;;;;9181251;19;20006;-64
2022/09/24 10:19:37;;;;;;;29.05;13.95;;;15.80;78.30;;;;;;9180462;19;20248;-64
2022/09/24 10:22:46;;;;;;;24.67;15.18;;;15.80;78.20;;;;;;9180080;19;20078;-64
2022/09/24 10:25:52;;;;;;;23.80;14.98;;;15.80;78.30;;;;;;9180273;19;20044;-64
2022/09/24 10:32:18;;;;;;;22.33;13.63;;;15.80;78.40;;;;;;9181801;19;20493;-64
2022/09/24 10:35:28;;;;;;;21.08;14.38;;;15.80;78.50;;;;;;9179689;19;20050;-65
2022/09/24 10:38:32;;;;;;;23.38;14.65;;;15.80;78.60;;;;;;9180836;19;20014;-63
2022/09/24 10:41:35;;;;;;;26.63;13.52;;;15.80;78.50;;;;;;9182086;19;20097;-65
2022/09/24 10:44:39;;;;;;;26.52;14.05;;;15.80;78.60;;;;;;9177795;19;20412;-65
2022/09/24 10:47:51;;;;;;;21.77;14.43;;;15.80;78.60;;;;;;9181102;19;20884;-65
2022/09/24 10:51:07;;;;;;;20.80;13.45;;;15.80;78.70;;;;;;9179905;19;20040;-66
2022/09/24 10:54:37;;;;;;;21.73;13.13;;;15.80;78.80;;;;;;9180174;19;20030;-65
2022/09/24 10:57:53;;;;;;;22.10;13.57;;;15.90;79.00;;;;;;9176467;19;20045;-63
2022/09/24 11:01:08;;;;;;;19.67;12.88;;;15.90;78.90;;;;;;9177663;19;20011;-63
2022/09/24 11:04:23;;;;;;;21.85;13.68;;;15.90;78.90;;;;;;9177766;19;20018;-63
2022/09/24 11:08:02;;;;;;;24.02;13.95;;;15.90;79.00;;;;;;9177295;19;20015;-63
2022/09/24 11:11:18;;;;;;;20.42;13.18;;;15.90;79.10;;;;;;9180196;19;20094;-65
2022/09/24 11:14:38;;;;;;;24.38;13.68;;;15.90;79.00;;;;;;9180637;19;20014;-64
2022/09/24 11:17:52;;;;;;;20.40;12.68;;;15.90;79.00;;;;;;9178430;19;20102;-64
2022/09/24 11:21:01;;;;;;;18.08;12.23;;;15.90;79.00;;;;;;9179698;19;20060;-65
2022/09/24 11:24:41;;;;;;;20.88;11.82;;;16.00;79.10;;;;;;9175522;19;20504;-63
2022/09/24 11:28:02;;;;;;;18.15;11.60;;;16.00;79.30;;;;;;9179179;19;20015;-64
2022/09/24 11:31:13;;;;;;;17.83;11.25;;;16.00;79.20;;;;;;9179787;19;20014;-63
2022/09/24 11:34:41;;;;;;;21.27;11.43;;;16.00;79.10;;;;;;9177443;19;20026;-66
2022/09/24 11:37:59;;;;;;;16.10;10.77;;;16.00;79.40;;;;;;9173459;19;20018;-65
2022/09/24 11:41:20;;;;;;;16.10;10.40;;;16.00;79.30;;;;;;9171937;19;20019;-63
2022/09/24 11:44:51;;;;;;;22.10;11.60;;;16.00;79.30;;;;;;9171390;19;20014;-66
2022/09/24 11:48:18;;;;;;;15.15;9.90;;;16.00;79.30;;;;;;9171364;19;20018;-62
2022/09/24 11:51:32;;;;;;;17.02;10.63;;;16.00;79.30;;;;;;9173269;19;20093;-64
2022/09/24 11:54:43;;;;;;;16.92;10.55;;;16.10;79.30;;;;;;9172857;19;20086;-64
2022/09/24 11:57:52;;;;;;;19.08;10.98;;;16.00;79.20;;;;;;9164265;19;20019;-64
2022/09/24 12:01:05;;;;;;;15.88;10.05;;;16.10;79.30;;;;;;9168912;19;20036;-64
2022/09/24 12:04:16;;;;;;;19.25;10.82;;;16.10;79.40;;;;;;9168424;19;20009;-64
2022/09/24 12:07:28;;;;;;;15.73;10.80;;;16.10;79.40;;;;;;9172898;19;20015;-64
2022/09/24 12:10:38;;;;;;;16.77;10.38;;;16.00;79.40;;;;;;9173583;19;20022;-66
2022/09/24 12:13:46;;;;;;;13.98;9.60;;;16.10;79.50;;;;;;9178861;19;20035;-64
2022/09/24 12:16:57;;;;;;;14.15;9.77;;;16.00;79.40;;;;;;9177779;19;20029;-64
2022/09/24 12:20:05;;;;;;;14.45;9.43;;;16.10;79.50;;;;;;9179584;19;20003;-64
2022/09/24 12:23:16;;;;;;;12.20;8.70;;;16.10;79.50;;;;;;9176275;19;20025;-65
2022/09/24 12:26:24;;;;;;;12.65;8.30;;;16.10;80.20;;;;;;9180367;19;20674;-64
2022/09/24 12:33:02;;;;;;;14.27;8.88;;;16.10;79.60;;;;;;9179495;19;20046;-64
2022/09/24 12:36:15;;;;;;;18.35;8.70;;;16.10;79.50;;;;;;9179108;19;20021;-64
2022/09/24 12:39:21;;;;;;;14.13;8.88;;;16.10;79.70;;;;;;9178527;19;20490;-64
2022/09/24 12:42:29;;;;;;;13.77;8.73;;;16.10;79.60;;;;;;9177836;19;20024;-62
2022/09/24 12:45:34;;;;;;;12.30;7.97;;;16.10;79.60;;;;;;9177853;19;20030;-64
2022/09/24 12:48:41;;;;;;;12.77;7.38;;;16.10;79.60;;;;;;9177709;19;20022;-65
2022/09/24 12:51:44;;;;;;;9.70;6.68;;;16.10;79.70;;;;;;9178056;19;20011;-66
2022/09/24 12:54:58;;;;;;;9.02;6.10;;;16.10;79.70;;;;;;9179319;19;20074;-65
2022/09/24 12:58:06;;;;;;;10.18;6.28;;;16.00;79.70;;;;;;9173674;19;20483;-66
2022/09/24 13:01:15;;;;;;;8.88;5.65;;;16.00;79.70;;;;;;9177942;19;20731;-64
2022/09/24 13:04:30;;;;;;;8.40;5.55;;;16.10;79.90;;;;;;9175090;19;20011;-65
2022/09/24 13:07:36;;;;;;;11.02;6.05;;;16.10;80.00;;;;;;9178313;19;20027;-63
2022/09/24 13:10:40;;;;;;;18.05;10.32;;;16.10;79.80;;;;;;9175784;19;20405;-65
2022/09/24 13:13:44;;;;;;;13.15;7.22;;;16.10;79.90;;;;;;9178427;19;20085;-63
2022/09/24 13:16:50;;;;;;;8.15;5.47;;;16.10;79.90;;;;;;9178396;19;20047;-63
2022/09/24 13:20:01;;;;;;;7.22;5.10;;;16.10;79.90;;;;;;9176964;19;20011;-63
2022/09/24 13:23:30;;;;;;;5.60;4.03;;;16.10;80.10;;;;;;9175920;19;20018;-63
2022/09/24 13:26:35;;;;;;;4.35;3.33;;;16.10;80.10;;;;;;9177230;19;20019;-64
2022/09/24 13:29:41;;;;;;;6.38;3.85;;;16.10;79.90;;;;;;9174637;19;20019;-63
2022/09/24 13:32:51;;;;;;;3.60;2.70;;;16.10;79.90;;;;;;9182689;19;20021;-63
2022/09/24 13:36:11;;;;;;;17.90;3.33;;;16.10;80.00;;;;;;9183850;19;20031;-63
2022/09/24 13:39:20;;;;;;;10.27;5.20;;;16.10;80.10;;;;;;9183275;19;20077;-64
2022/09/24 13:42:34;;;;;;;11.25;5.88;;;16.10;80.00;;;;;;9184457;19;20095;-63
2022/09/24 13:45:43;;;;;;;12.80;6.18;;;16.10;80.10;;;;;;9184015;19;20066;-63
2022/09/24 13:48:52;;;;;;;8.00;4.63;;;16.10;80.10;;;;;;9181900;19;20418;-64
2022/09/24 13:52:13;;;;;;;8.25;3.58;;;16.10;80.10;;;;;;9183038;19;20423;-65
2022/09/24 13:55:22;;;;;;;5.00;3.65;;;16.10;80.20;;;;;;9183337;19;20041;-64
2022/09/24 13:58:29;;;;;;;6.25;2.90;;;16.10;80.10;;;;;;9178373;19;20021;-64
2022/09/24 14:01:40;;;;;;;5.30;3.42;;;16.10;80.20;;;;;;9181697;19;20037;-66
2022/09/24 14:04:45;;;;;;;4.15;2.65;;;16.10;80.20;;;;;;9179047;19;20014;-65
2022/09/24 14:08:04;;;;;;;3.78;2.70;;;16.10;80.20;;;;;;9180553;19;20026;-65
2022/09/24 14:11:15;;;;;;;2.80;2.03;;;16.00;80.30;;;;;;9181546;19;20085;-63
2022/09/24 14:14:22;;;;;;;10.13;2.90;;;16.00;80.20;;;;;;9183643;19;20055;-64
2022/09/24 14:17:26;;;;;;;6.95;3.00;;;16.00;80.20;;;;;;9182159;19;20419;-63
2022/09/24 14:20:34;;;;;;;6.60;3.90;;;16.10;80.30;;;;;;9182673;19;20010;-67
2022/09/24 14:23:45;;;;;;;6.07;4.00;;;16.00;80.30;;;;;;9181208;19;20006;-64
2022/09/24 14:26:55;;;;;;;6.18;3.70;;;16.00;80.40;;;;;;9181954;19;20023;-65
2022/09/24 14:30:03;;;;;;;6.90;4.63;;;16.10;80.50;;;;;;9182171;19;20074;-66
2022/09/24 14:33:13;;;;;;;6.60;4.07;;;16.10;80.50;;;;;;9180202;19;20022;-65
2022/09/24 14:36:17;;;;;;;5.90;3.80;;;16.00;80.50;;;;;;9173014;19;20025;-65
2022/09/24 14:39:26;;;;;;;8.15;3.97;;;16.00;80.50;;;;;;9175961;19;20357;-64
2022/09/24 14:42:34;;;;;;;7.10;4.43;;;16.10;80.60;;;;;;9175479;19;20019;-64
2022/09/24 14:45:39;;;;;;;6.38;3.80;;;16.00;80.50;;;;;;9170079;19;20039;-65
2022/09/24 14:48:42;;;;;;;6.32;4.32;;;16.10;80.60;;;;;;9174800;19;20356;-64
2022/09/24 14:51:53;;;;;;;6.75;4.25;;;16.10;80.70;;;;;;9174585;19;20014;-65
2022/09/24 14:55:16;;;;;;;9.18;4.97;;;16.10;80.70;;;;;;9172547;19;20110;-65
2022/09/24 14:58:26;;;;;;;9.68;4.88;;;16.10;80.80;;;;;;9167589;19;20014;-65
2022/09/24 15:01:33;;;;;;;9.88;4.90;;;16.10;80.70;;;;;;9173119;19;20014;-66
2022/09/24 15:04:38;;;;;;;7.35;3.63;;;16.10;80.80;;;;;;9169711;19;20019;-65
2022/09/24 15:07:42;;;;;;;9.68;4.53;;;16.10;80.70;;;;;;9171451;19;20635;-66
2022/09/24 15:10:55;;;;;;;10.43;4.45;;;16.10;80.80;;;;;;9172533;19;20015;-66
2022/09/24 15:14:02;;;;;;;10.90;4.63;;;16.10;81.00;;;;;;9171708;19;20023;-64
2022/09/24 15:17:12;;;;;;;9.05;4.70;;;16.10;80.90;;;;;;9169184;19;20019;-65
2022/09/24 15:20:15;;;;;;;9.63;3.00;;;16.10;81.00;;;;;;9171693;19;20010;-64
2022/09/24 15:23:19;;;;;;;11.23;2.50;;;16.10;81.00;;;;;;9170355;19;20010;-64
2022/09/24 15:26:29;;;;;;;9.50;2.92;;;16.10;80.90;;;;;;9173409;19;20014;-65
2022/09/24 15:29:33;;;;;;;9.68;2.70;;;16.10;81.00;;;;;;9172831;19;20021;-64
2022/09/24 15:32:36;;;;;;;7.93;2.30;;;16.10;81.00;;;;;;9172628;19;20101;-63
2022/09/24 15:35:41;;;;;;;5.80;1.83;;;16.10;81.00;;;;;;9170248;19;20370;-64
2022/09/24 15:38:45;;;;;;;9.77;2.47;;;16.10;81.00;;;;;;9171638;19;20485;-65
2022/09/24 15:41:50;;;;;;;3.47;1.55;;;16.10;80.90;;;;;;9164449;19;20022;-64
2022/09/24 15:44:54;;;;;;;7.93;2.20;;;16.10;80.90;;;;;;9159624;19;20098;-65
2022/09/24 15:47:58;;;;;;;7.45;1.98;;;16.00;80.90;;;;;;9163126;19;20107;-66
2022/09/24 15:51:03;;;;;;;7.55;1.63;;;16.10;81.00;;;;;;9164148;19;20375;-65
2022/09/24 15:54:14;;;;;;;7.30;3.97;;;16.00;80.90;;;;;;9169923;19;20018;-64
2022/09/24 15:57:21;;;;;;;19.17;10.20;;;16.00;80.90;;;;;;9167217;19;20461;-63
2022/09/24 16:00:25;;;;;;;14.38;6.10;;;16.00;80.90;;;;;;9170240;19;20026;-64
2022/09/24 16:03:31;;;;;;;8.35;3.83;;;16.00;80.90;;;;;;9167181;19;20047;-64
2022/09/24 16:06:35;;;;;;;8.90;3.45;;;15.90;80.90;;;;;;9163598;19;20028;-65
2022/09/24 16:09:39;;;;;;;15.25;4.72;;;15.90;80.90;;;;;;9159064;19;20093;-65
2022/09/24 16:12:45;;;;;;;11.05;3.90;;;15.90;80.90;;;;;;9166026;19;20070;-64
2022/09/24 16:15:49;;;;;;;11.65;4.53;;;15.80;81.00;;;;;;9169872;19;20352;-65